Time;durP1;ratioP1;P1;durP2;ratioP2;P2;SDS_P1;SDS_P2;PMS_P1;PMS_P2;Temp;Humidity;BMP_temperature;BMP_pressure;BME280_temperature;BME280_humidity;BME280_pressure;Samples;Min_cycle;Max_cycle;Signal;HPM_P1;HPM_P2
2022/10/16 00:00:23;;;;;;;;;;;;;;;16.62;79.83;100569.84;1237675;24;619;-78
2022/10/16 00:01:14;;;;;;;;;;;;;;;16.61;80.99;100563.63;1238047;24;602;-76
2022/10/16 00:02:04;;;;;;;;;;;;;;;16.64;81.16;100557.13;1237653;23;1944;-78
2022/10/16 00:02:55;;;;;;;;;;;;;;;16.64;80.10;100557.13;1237038;24;638;-78
2022/10/16 00:03:45;;;;;;;;;;;;;;;16.66;81.35;100565.88;1237251;24;650;-78
2022/10/16 00:04:36;;;;;;;;;;;;;;;16.65;80.89;100564.22;1237718;24;650;-78
2022/10/16 00:05:26;;;;;;;;;;;;;;;16.65;80.78;100558.84;1238001;24;662;-78
2022/10/16 00:06:17;;;;;;;;;;;;;;;16.63;80.86;100560.81;1237991;24;646;-77
2022/10/16 00:07:07;;;;;;;;;;;;;;;16.58;80.55;100565.75;1237756;23;610;-77
2022/10/16 00:07:57;;;;;;;;;;;;;;;16.61;80.94;100560.94;1238334;24;613;-78
2022/10/16 00:08:48;;;;;;;;;;;;;;;16.58;79.79;100557.69;1237837;24;692;-78
2022/10/16 00:09:38;;;;;;;;;;;;;;;16.59;80.75;100565.59;1237587;24;619;-78
2022/10/16 00:10:29;;;;;;;;;;;;;;;16.54;80.61;100556.25;1237463;24;626;-79
2022/10/16 00:11:19;;;;;;;;;;;;;;;16.59;81.43;100564.75;1237742;24;669;-78
2022/10/16 00:12:10;;;;;;;;;;;;;;;16.59;80.84;100559.38;1237879;24;638;-78
2022/10/16 00:13:00;;;;;;;;;;;;;;;16.61;80.90;100565.47;1238080;24;693;-78
2022/10/16 00:13:51;;;;;;;;;;;;;;;16.57;79.61;100572.13;1237831;24;619;-77
2022/10/16 00:14:43;;;;;;;;;;;;;;;16.57;80.68;100567.59;1236999;24;630;-78
2022/10/16 00:15:36;;;;;;;;;;;;;;;16.59;81.28;100559.38;1236829;24;599;-78
2022/10/16 00:16:26;;;;;;;;;;;;;;;16.61;80.61;100568.16;1237031;24;637;-77
2022/10/16 00:17:16;;;;;;;;;;;;;;;16.63;80.66;100572.44;1237319;24;598;-77
2022/10/16 00:18:07;;;;;;;;;;;;;;;16.64;81.12;100559.81;1238334;23;602;-78
2022/10/16 00:18:57;;;;;;;;;;;;;;;16.65;80.88;100566.91;1237786;24;634;-77
2022/10/16 00:19:48;;;;;;;;;;;;;;;16.65;80.78;100564.22;1237899;24;658;-78
2022/10/16 00:20:38;;;;;;;;;;;;;;;16.62;80.26;100554.56;1237850;24;622;-77
2022/10/16 00:21:29;;;;;;;;;;;;;;;16.59;81.06;100564.75;1237733;23;618;-78
2022/10/16 00:22:19;;;;;;;;;;;;;;;16.55;79.02;100563.34;1238061;24;1919;-78
2022/10/16 00:23:10;;;;;;;;;;;;;;;16.56;80.85;100559.66;1237741;24;607;-78
2022/10/16 00:24:00;;;;;;;;;;;;;;;16.57;80.10;100551.44;1237014;24;602;-78
2022/10/16 00:24:51;;;;;;;;;;;;;;;16.57;80.84;100551.44;1237754;24;637;-78
2022/10/16 00:25:41;;;;;;;;;;;;;;;16.58;79.43;100550.44;1243183;23;689;-78
2022/10/16 00:26:32;;;;;;;;;;;;;;;16.59;81.06;100556.69;1242486;23;638;-78
2022/10/16 00:27:22;;;;;;;;;;;;;;;16.62;80.65;100548.31;1237084;24;657;-79
2022/10/16 00:28:12;;;;;;;;;;;;;;;16.63;80.98;100545.53;1237790;24;607;-78
2022/10/16 00:29:03;;;;;;;;;;;;;;;16.62;80.36;100542.94;1237820;24;614;-78
2022/10/16 00:29:53;;;;;;;;;;;;;;;16.57;78.53;100545.22;1237876;24;626;-78
2022/10/16 00:30:44;;;;;;;;;;;;;;;16.54;78.52;100545.50;1237934;24;658;-78
2022/10/16 00:31:34;;;;;;;;;;;;;;;16.53;80.73;100554.56;1237661;24;615;-78
2022/10/16 00:32:25;;;;;;;;;;;;;;;16.53;79.73;100547.34;1237816;24;630;-78
2022/10/16 00:33:15;;;;;;;;;;;;;;;16.52;80.63;100542.09;1237575;24;1042;-78
2022/10/16 00:34:05;;;;;;;;;;;;;;;16.55;80.78;100544.50;1238072;24;752;-78
2022/10/16 00:34:56;;;;;;;;;;;;;;;16.54;79.94;100553.56;1237780;23;625;-78
2022/10/16 00:35:46;;;;;;;;;;;;;;;16.52;78.39;100551.03;1237487;24;685;-78
2022/10/16 00:36:37;;;;;;;;;;;;;;;16.47;78.80;100556.00;1238141;24;634;-78
2022/10/16 00:37:27;;;;;;;;;;;;;;;16.51;80.28;100556.53;1237794;24;626;-78
2022/10/16 00:38:18;;;;;;;;;;;;;;;16.49;80.49;100553.16;1237992;24;542;-78
2022/10/16 00:39:08;;;;;;;;;;;;;;;16.39;77.40;100557.72;1238381;24;622;-78
2022/10/16 00:39:59;;;;;;;;;;;;;;;16.41;79.55;100550.34;1238165;24;622;-78
2022/10/16 00:40:49;;;;;;;;;;;;;;;16.43;78.75;100551.06;1238534;24;673;-78
2022/10/16 00:41:40;;;;;;;;;;;;;;;16.35;78.37;100551.75;1238180;24;670;-77
2022/10/16 00:42:30;;;;;;;;;;;;;;;16.42;80.44;100552.91;1238037;24;1909;-78
2022/10/16 00:43:20;;;;;;;;;;;;;;;16.45;80.53;100546.38;1238868;24;693;-78
2022/10/16 00:44:11;;;;;;;;;;;;;;;16.49;80.31;100553.16;1237402;24;598;-77
2022/10/16 00:45:01;;;;;;;;;;;;;;;16.47;80.50;100553.31;1238057;24;603;-78
2022/10/16 00:45:52;;;;;;;;;;;;;;;16.37;78.15;100546.25;1238222;24;610;-78
2022/10/16 00:46:42;;;;;;;;;;;;;;;16.29;77.78;100539.75;1238107;23;725;-78
2022/10/16 00:47:33;;;;;;;;;;;;;;;16.41;80.87;100544.97;1238060;24;647;-78
2022/10/16 00:48:23;;;;;;;;;;;;;;;16.37;76.61;100554.31;1238426;24;603;-79
2022/10/16 00:49:13;;;;;;;;;;;;;;;16.39;79.28;100552.31;1238324;23;626;-78
2022/10/16 00:50:05;;;;;;;;;;;;;;;16.46;80.28;100548.94;1238309;23;650;-78
2022/10/16 00:50:55;;;;;;;;;;;;;;;16.40;80.26;100557.56;1237496;24;666;-79
2022/10/16 00:51:46;;;;;;;;;;;;;;;16.44;79.62;100558.13;1238076;24;653;-78
2022/10/16 00:52:36;;;;;;;;;;;;;;;16.38;80.39;100556.00;1238819;24;670;-78
2022/10/16 00:53:27;;;;;;;;;;;;;;;16.41;79.12;100558.41;1238256;24;681;-78
2022/10/16 00:54:17;;;;;;;;;;;;;;;16.39;78.56;100552.31;1243598;23;700;-79
2022/10/16 00:55:07;;;;;;;;;;;;;;;16.39;80.65;100546.94;1243386;23;650;-78
2022/10/16 00:55:58;;;;;;;;;;;;;;;16.43;80.11;100543.00;1237412;24;645;-78
2022/10/16 00:56:48;;;;;;;;;;;;;;;16.39;78.69;100550.50;1238151;24;650;-78
2022/10/16 00:57:39;;;;;;;;;;;;;;;16.38;79.60;100556.84;1238543;24;607;-79
2022/10/16 00:58:29;;;;;;;;;;;;;;;16.43;81.04;100553.75;1238214;24;671;-79
2022/10/16 00:59:19;;;;;;;;;;;;;;;16.41;78.33;100556.56;1237976;24;648;-78
2022/10/16 01:00:10;;;;;;;;;;;;;;;16.30;77.00;100548.69;1238415;24;610;-77
2022/10/16 01:01:00;;;;;;;;;;;;;;;16.24;77.90;100550.09;1238107;24;607;-78
2022/10/16 01:01:51;;;;;;;;;;;;;;;16.22;77.29;100556.59;1243671;23;625;-78
2022/10/16 01:02:41;;;;;;;;;;;;;;;16.21;79.43;100555.75;1242860;23;606;-76
2022/10/16 01:03:32;;;;;;;;;;;;;;;16.30;81.23;100549.50;1237590;24;611;-76
2022/10/16 01:04:22;;;;;;;;;;;;;;;16.20;78.45;100556.75;1237512;24;646;-77
2022/10/16 01:05:13;;;;;;;;;;;;;;;16.22;80.84;100560.13;1237995;23;633;-77
2022/10/16 01:06:03;;;;;;;;;;;;;;;16.31;80.73;100561.94;1237435;24;606;-77
2022/10/16 01:06:54;;;;;;;;;;;;;;;16.31;79.13;100553.88;1238237;24;610;-77
2022/10/16 01:07:44;;;;;;;;;;;;;;;16.31;79.62;100547.66;1238152;24;693;-77
2022/10/16 01:08:35;;;;;;;;;;;;;;;16.32;78.14;100552.91;1238027;24;610;-77
2022/10/16 01:09:25;;;;;;;;;;;;;;;16.21;78.19;100554.91;1237737;24;634;-77
2022/10/16 01:10:15;;;;;;;;;;;;;;;16.25;79.81;100546.41;1238033;24;689;-77
2022/10/16 01:11:06;;;;;;;;;;;;;;;16.24;78.61;100554.63;1238134;24;653;-77
2022/10/16 01:11:56;;;;;;;;;;;;;;;16.25;78.79;100546.41;1238335;23;598;-77
2022/10/16 01:12:47;;;;;;;;;;;;;;;16.15;77.20;100542.88;1238206;24;627;-77
2022/10/16 01:13:37;;;;;;;;;;;;;;;16.09;77.21;100542.59;1238289;24;614;-78
2022/10/16 01:14:28;;;;;;;;;;;;;;;16.10;78.17;100542.47;1243645;23;606;-77
2022/10/16 01:15:18;;;;;;;;;;;;;;;16.01;76.87;100531.69;1243008;23;641;-77
2022/10/16 01:16:09;;;;;;;;;;;;;;;16.07;78.94;100526.63;1237380;24;653;-77
2022/10/16 01:16:59;;;;;;;;;;;;;;;16.06;78.13;100535.69;1238746;23;633;-77
2022/10/16 01:17:49;;;;;;;;;;;;;;;16.10;77.78;100537.09;1238100;23;708;-77
2022/10/16 01:18:40;;;;;;;;;;;;;;;16.19;78.74;100557.72;1237696;24;646;-77
2022/10/16 01:19:30;;;;;;;;;;;;;;;16.12;77.16;100540.47;1238215;23;626;-77
2022/10/16 01:20:21;;;;;;;;;;;;;;;16.15;79.08;100545.56;1238176;23;622;-77
2022/10/16 01:21:11;;;;;;;;;;;;;;;16.19;79.42;100546.97;1238258;24;674;-77
2022/10/16 01:22:02;;;;;;;;;;;;;;;16.17;79.98;100545.41;1237997;24;630;-76
2022/10/16 01:22:52;;;;;;;;;;;;;;;16.14;78.41;100543.00;1238156;24;607;-77
2022/10/16 01:23:43;;;;;;;;;;;;;;;16.10;77.87;100542.47;1238048;23;590;-78
2022/10/16 01:24:33;;;;;;;;;;;;;;;16.14;78.94;100533.09;1238129;24;626;-77
2022/10/16 01:25:24;;;;;;;;;;;;;;;16.13;78.22;100538.63;1238234;24;611;-77
2022/10/16 01:26:14;;;;;;;;;;;;;;;16.16;79.70;100538.34;1238045;24;634;-77
2022/10/16 01:27:05;;;;;;;;;;;;;;;16.12;77.95;100532.41;1238008;24;744;-77
2022/10/16 01:27:56;;;;;;;;;;;;;;;16.15;78.73;100532.13;1238442;23;642;-79
2022/10/16 01:28:46;;;;;;;;;;;;;;;16.25;80.72;100543.72;1237152;24;642;-78
2022/10/16 01:29:36;;;;;;;;;;;;;;;16.22;78.75;100538.63;1237402;24;661;-78
2022/10/16 01:30:27;;;;;;;;;;;;;;;16.32;80.20;100536.75;1237724;24;650;-78
2022/10/16 01:31:17;;;;;;;;;;;;;;;16.35;80.42;100534.78;1238221;23;630;-78
2022/10/16 01:32:08;;;;;;;;;;;;;;;16.32;80.65;100533.22;1238113;24;666;-78
2022/10/16 01:32:58;;;;;;;;;;;;;;;16.35;79.77;100534.78;1238323;24;701;-78
2022/10/16 01:33:49;;;;;;;;;;;;;;;16.27;79.01;100532.81;1238044;24;606;-78
2022/10/16 01:34:39;;;;;;;;;;;;;;;16.22;79.07;100545.84;1238404;24;658;-78
2022/10/16 01:35:29;;;;;;;;;;;;;;;16.24;78.95;100535.81;1237997;24;826;-78
2022/10/16 01:36:20;;;;;;;;;;;;;;;16.23;78.65;100537.63;1238056;24;554;-78
2022/10/16 01:37:10;;;;;;;;;;;;;;;16.25;80.02;100541.03;1238555;24;611;-78
2022/10/16 01:38:01;;;;;;;;;;;;;;;16.30;80.23;100530.66;1238123;24;618;-78
2022/10/16 01:38:51;;;;;;;;;;;;;;;16.24;80.21;100531.28;1238109;23;721;-78
2022/10/16 01:39:42;;;;;;;;;;;;;;;16.28;80.17;100542.59;1238367;24;632;-78
2022/10/16 01:40:32;;;;;;;;;;;;;;;16.33;80.56;100549.22;1237925;24;799;-78
2022/10/16 01:41:24;;;;;;;;;;;;;;;16.17;76.53;100540.88;1238070;23;598;-78
2022/10/16 01:42:15;;;;;;;;;;;;;;;16.14;79.67;100546.53;1237355;24;1960;-78
2022/10/16 01:43:05;;;;;;;;;;;;;;;16.14;78.89;100551.91;1238017;24;631;-78
2022/10/16 01:43:56;;;;;;;;;;;;;;;16.22;80.16;100548.53;1238308;24;636;-79
2022/10/16 01:44:46;;;;;;;;;;;;;;;16.26;79.48;100544.56;1238286;24;630;-79
2022/10/16 01:45:36;;;;;;;;;;;;;;;16.16;77.87;100535.66;1237982;24;670;-78
2022/10/16 01:46:27;;;;;;;;;;;;;;;16.13;77.96;100541.31;1238531;23;662;-78
2022/10/16 01:47:17;;;;;;;;;;;;;;;16.02;78.00;100534.25;1238080;24;709;-77
2022/10/16 01:48:09;;;;;;;;;;;;;;;15.95;78.46;100531.28;1238121;24;642;-78
2022/10/16 01:48:59;;;;;;;;;;;;;;;16.08;79.93;100543.59;1237801;24;662;-77
2022/10/16 01:49:50;;;;;;;;;;;;;;;16.03;77.67;100538.63;1243175;23;665;-78
2022/10/16 01:50:40;;;;;;;;;;;;;;;15.97;79.20;100544.56;1242690;23;638;-77
2022/10/16 01:51:31;;;;;;;;;;;;;;;16.10;80.37;100542.47;1239386;23;661;-78
2022/10/16 01:52:22;;;;;;;;;;;;;;;16.08;78.25;100539.06;1243456;23;661;-78
2022/10/16 01:53:12;;;;;;;;;;;;;;;16.08;78.69;100533.69;1238486;23;633;-78
2022/10/16 01:54:03;;;;;;;;;;;;;;;16.13;79.91;100539.47;1238029;24;638;-78
2022/10/16 01:54:53;;;;;;;;;;;;;;;16.09;78.95;100540.78;1238112;24;778;-77
2022/10/16 01:55:44;;;;;;;;;;;;;;;16.15;80.70;100547.41;1238072;24;681;-77
2022/10/16 01:56:35;;;;;;;;;;;;;;;16.10;80.12;100542.47;1237576;24;685;-77
2022/10/16 01:57:25;;;;;;;;;;;;;;;16.07;79.43;100548.13;1238046;23;673;-78
2022/10/16 01:58:16;;;;;;;;;;;;;;;16.10;80.45;100552.38;1237493;24;645;-78
2022/10/16 01:59:06;;;;;;;;;;;;;;;16.08;79.04;100546.28;1238062;23;669;-78
2022/10/16 01:59:57;;;;;;;;;;;;;;;15.98;77.86;100546.28;1237923;24;611;-78
2022/10/16 02:00:47;;;;;;;;;;;;;;;16.10;80.67;100545.16;1238288;24;689;-78
2022/10/16 02:01:38;;;;;;;;;;;;;;;16.08;78.48;100551.66;1237966;24;686;-78
2022/10/16 02:02:28;;;;;;;;;;;;;;;16.04;79.02;100558.31;1237952;24;1921;-78
2022/10/16 02:03:21;;;;;;;;;;;;;;;16.15;80.24;100552.78;1238547;24;682;-78
2022/10/16 02:04:11;;;;;;;;;;;;;;;16.14;79.35;100559.97;1237977;23;602;-78
2022/10/16 02:05:02;;;;;;;;;;;;;;;16.10;79.35;100547.00;1238045;24;760;-78
2022/10/16 02:05:52;;;;;;;;;;;;;;;16.21;80.77;100558.44;1238477;24;626;-78
2022/10/16 02:06:43;;;;;;;;;;;;;;;16.22;80.11;100557.44;1237905;23;614;-78
2022/10/16 02:07:33;;;;;;;;;;;;;;;16.18;78.88;100561.41;1238306;24;630;-78
2022/10/16 02:08:24;;;;;;;;;;;;;;;16.23;80.59;100555.59;1237990;24;666;-79
2022/10/16 02:09:16;;;;;;;;;;;;;;;16.26;80.43;100564.25;1237967;24;633;-79
2022/10/16 02:10:07;;;;;;;;;;;;;;;16.32;80.42;100555.59;1237618;24;740;-78
2022/10/16 02:10:57;;;;;;;;;;;;;;;16.26;80.20;100564.25;1237929;23;650;-78
2022/10/16 02:11:49;;;;;;;;;;;;;;;16.23;80.36;100558.31;1238055;24;631;-78
2022/10/16 02:12:39;;;;;;;;;;;;;;;16.28;81.02;100554.19;1237636;24;622;-78
2022/10/16 02:13:29;;;;;;;;;;;;;;;16.26;80.08;100564.25;1238040;23;610;-79
2022/10/16 02:14:20;;;;;;;;;;;;;;;16.27;80.34;100563.25;1238051;24;653;-78
2022/10/16 02:15:10;;;;;;;;;;;;;;;16.23;80.77;100559.16;1238073;24;654;-79
2022/10/16 02:16:01;;;;;;;;;;;;;;;16.23;80.64;100569.91;1238055;24;621;-79
2022/10/16 02:16:51;;;;;;;;;;;;;;;16.14;79.06;100564.50;1237846;24;673;-79
2022/10/16 02:17:42;;;;;;;;;;;;;;;16.16;81.06;100567.91;1238241;24;658;-79
2022/10/16 02:18:32;;;;;;;;;;;;;;;16.25;80.74;100569.75;1237880;24;579;-79
2022/10/16 02:19:23;;;;;;;;;;;;;;;16.25;79.95;100573.31;1237362;24;670;-79
2022/10/16 02:20:13;;;;;;;;;;;;;;;16.20;80.41;100572.03;1238326;24;829;-79
2022/10/16 02:21:04;;;;;;;;;;;;;;;16.16;80.52;100568.75;1238121;24;631;-78
2022/10/16 02:21:54;;;;;;;;;;;;;;;16.24;80.99;100576.97;1238300;24;618;-78
2022/10/16 02:22:44;;;;;;;;;;;;;;;16.18;79.73;100574.84;1237807;24;666;-78
2022/10/16 02:23:35;;;;;;;;;;;;;;;16.27;80.98;100579.38;1237864;24;638;-78
2022/10/16 02:24:26;;;;;;;;;;;;;;;16.27;80.04;100581.22;1237397;24;639;-78
2022/10/16 02:25:16;;;;;;;;;;;;;;;16.21;78.11;100577.25;1237991;24;627;-78
2022/10/16 02:26:07;;;;;;;;;;;;;;;16.26;81.01;100582.22;1237820;24;615;-78
2022/10/16 02:26:58;;;;;;;;;;;;;;;16.17;80.23;100580.38;1243858;23;685;-78
2022/10/16 02:27:49;;;;;;;;;;;;;;;16.21;80.46;100585.31;1242016;23;717;-78
2022/10/16 02:28:40;;;;;;;;;;;;;;;16.28;80.75;100588.31;1237311;24;804;-78
2022/10/16 02:29:30;;;;;;;;;;;;;;;16.30;80.77;100589.00;1238232;24;618;-79
2022/10/16 02:30:21;;;;;;;;;;;;;;;16.27;80.46;100587.47;1237942;23;779;-78
2022/10/16 02:31:11;;;;;;;;;;;;;;;16.29;81.05;100581.94;1238141;23;740;-78
2022/10/16 02:32:02;;;;;;;;;;;;;;;16.29;80.71;100590.84;1238144;24;640;-78
2022/10/16 02:32:52;;;;;;;;;;;;;;;16.17;80.74;100581.22;1237973;24;642;-78
2022/10/16 02:33:43;;;;;;;;;;;;;;;16.19;81.09;100583.75;1238039;23;641;-79
2022/10/16 02:34:33;;;;;;;;;;;;;;;16.27;80.83;100592.84;1237948;24;674;-79
2022/10/16 02:35:23;;;;;;;;;;;;;;;16.13;79.43;100587.84;1237824;23;673;-76
2022/10/16 02:36:14;;;;;;;;;;;;;;;16.15;81.12;100591.25;1238254;24;733;-76
2022/10/16 02:37:04;;;;;;;;;;;;;;;16.22;81.44;100587.03;1238038;23;677;-77
2022/10/16 02:37:55;;;;;;;;;;;;;;;16.26;80.61;100591.13;1237926;24;631;-77
2022/10/16 02:38:45;;;;;;;;;;;;;;;16.20;79.02;100589.00;1238319;24;632;-77
2022/10/16 02:39:36;;;;;;;;;;;;;;;16.24;80.45;100594.94;1237739;24;654;-77
2022/10/16 02:40:26;;;;;;;;;;;;;;;16.22;79.14;100595.09;1237775;24;658;-77
2022/10/16 02:41:17;;;;;;;;;;;;;;;16.22;80.43;100589.72;1243806;23;665;-77
2022/10/16 02:42:07;;;;;;;;;;;;;;;16.27;81.01;100597.38;1243567;23;618;-77
2022/10/16 02:42:58;;;;;;;;;;;;;;;16.19;79.61;100594.53;1237446;24;650;-76
2022/10/16 02:43:49;;;;;;;;;;;;;;;16.20;80.77;100594.38;1237178;24;698;-76
2022/10/16 02:44:39;;;;;;;;;;;;;;;16.26;80.43;100596.50;1237152;24;661;-76
2022/10/16 02:45:30;;;;;;;;;;;;;;;16.21;78.47;100593.38;1238361;23;653;-77
2022/10/16 02:46:20;;;;;;;;;;;;;;;16.17;79.67;100597.34;1237931;24;689;-77
2022/10/16 02:47:11;;;;;;;;;;;;;;;16.19;80.70;100592.69;1237939;23;666;-77
2022/10/16 02:48:02;;;;;;;;;;;;;;;16.21;81.21;100592.53;1237334;24;650;-77
2022/10/16 02:48:52;;;;;;;;;;;;;;;16.22;80.40;100597.78;1237842;24;673;-77
2022/10/16 02:49:43;;;;;;;;;;;;;;;16.28;80.57;100591.84;1237912;23;665;-77
2022/10/16 02:50:33;;;;;;;;;;;;;;;16.30;80.58;100592.53;1238114;24;614;-77
2022/10/16 02:51:24;;;;;;;;;;;;;;;16.22;78.84;100595.09;1237857;24;646;-77
2022/10/16 02:52:14;;;;;;;;;;;;;;;16.22;80.69;100594.25;1238073;24;602;-77
2022/10/16 02:53:04;;;;;;;;;;;;;;;16.18;78.79;100588.28;1238082;24;677;-77
2022/10/16 02:53:55;;;;;;;;;;;;;;;16.23;80.94;100595.94;1237849;24;615;-77
2022/10/16 02:54:45;;;;;;;;;;;;;;;16.25;80.21;100597.50;1237800;24;693;-77
2022/10/16 02:55:36;;;;;;;;;;;;;;;16.27;80.59;100592.84;1238035;23;626;-78
2022/10/16 02:56:26;;;;;;;;;;;;;;;16.32;80.66;100595.06;1243432;23;681;-77
2022/10/16 02:57:17;;;;;;;;;;;;;;;16.35;80.28;100596.63;1242891;23;791;-78
2022/10/16 02:58:07;;;;;;;;;;;;;;;16.36;80.78;100599.19;1237162;24;634;-77
2022/10/16 02:58:58;;;;;;;;;;;;;;;16.32;79.61;100600.44;1238006;24;654;-78
2022/10/16 02:59:48;;;;;;;;;;;;;;;16.37;80.44;100592.81;1238212;24;674;-78
2022/10/16 03:00:38;;;;;;;;;;;;;;;16.28;79.92;100589.16;1237929;24;726;-78
2022/10/16 03:01:29;;;;;;;;;;;;;;;16.29;79.86;100598.06;1243293;23;626;-78
2022/10/16 03:02:19;;;;;;;;;;;;;;;16.18;80.20;100592.81;1242494;23;1882;-78
2022/10/16 03:03:10;;;;;;;;;;;;;;;16.29;81.08;100592.69;1238022;23;720;-78
2022/10/16 03:04:00;;;;;;;;;;;;;;;16.33;80.67;100594.09;1237345;24;626;-78
2022/10/16 03:04:50;;;;;;;;;;;;;;;16.33;80.04;100599.47;1237818;24;627;-77
2022/10/16 03:05:41;;;;;;;;;;;;;;;16.35;80.31;100593.94;1237787;23;649;-77
2022/10/16 03:06:31;;;;;;;;;;;;;;;16.30;78.88;100594.41;1237990;24;643;-77
2022/10/16 03:07:22;;;;;;;;;;;;;;;16.18;80.13;100593.66;1237900;24;661;-77
2022/10/16 03:08:12;;;;;;;;;;;;;;;16.25;81.14;100596.66;1237826;24;700;-77
2022/10/16 03:09:03;;;;;;;;;;;;;;;16.30;80.94;100597.09;1237121;24;729;-78
2022/10/16 03:09:54;;;;;;;;;;;;;;;16.25;80.33;100593.97;1237881;23;625;-77
2022/10/16 03:10:44;;;;;;;;;;;;;;;16.27;81.32;100592.84;1237111;24;661;-77
2022/10/16 03:11:35;;;;;;;;;;;;;;;16.32;80.87;100590.53;1238090;24;607;-77
2022/10/16 03:12:25;;;;;;;;;;;;;;;16.31;80.46;100583.47;1237909;24;673;-77
2022/10/16 03:13:16;;;;;;;;;;;;;;;16.31;80.85;100586.16;1238014;23;626;-77
2022/10/16 03:14:07;;;;;;;;;;;;;;;16.24;80.94;100585.03;1237740;24;639;-77
2022/10/16 03:14:57;;;;;;;;;;;;;;;16.26;80.78;100584.91;1237051;24;705;-77
2022/10/16 03:15:48;;;;;;;;;;;;;;;16.20;78.54;100589.00;1238251;24;701;-77
2022/10/16 03:16:38;;;;;;;;;;;;;;;16.26;80.74;100580.38;1237808;24;629;-77
2022/10/16 03:17:29;;;;;;;;;;;;;;;16.24;79.79;100576.13;1237807;24;737;-77
2022/10/16 03:18:19;;;;;;;;;;;;;;;16.25;79.98;100586.75;1238125;24;623;-77
2022/10/16 03:19:10;;;;;;;;;;;;;;;16.25;80.62;100578.69;1237715;24;619;-77
2022/10/16 03:20:00;;;;;;;;;;;;;;;16.22;80.62;100589.72;1237728;24;729;-78
2022/10/16 03:20:50;;;;;;;;;;;;;;;16.18;80.48;100580.22;1238171;24;674;-78
2022/10/16 03:21:41;;;;;;;;;;;;;;;16.24;81.18;100582.34;1237917;24;618;-79
2022/10/16 03:22:31;;;;;;;;;;;;;;;16.26;80.49;100585.75;1237786;24;1922;-79
2022/10/16 03:23:22;;;;;;;;;;;;;;;16.29;80.90;100590.00;1237684;24;643;-79
2022/10/16 03:24:12;;;;;;;;;;;;;;;16.30;81.01;100586.31;1237737;24;598;-78
2022/10/16 03:25:03;;;;;;;;;;;;;;;16.30;80.67;100581.75;1237067;24;639;-78
2022/10/16 03:25:53;;;;;;;;;;;;;;;16.29;80.65;100584.63;1237241;23;705;-77
2022/10/16 03:26:44;;;;;;;;;;;;;;;16.33;81.01;100591.41;1236919;24;697;-77
2022/10/16 03:27:34;;;;;;;;;;;;;;;16.31;80.51;100594.22;1238124;24;697;-77
2022/10/16 03:28:25;;;;;;;;;;;;;;;16.31;80.86;100596.91;1237910;23;725;-77
2022/10/16 03:29:15;;;;;;;;;;;;;;;16.31;80.70;100601.44;1237907;24;654;-78
2022/10/16 03:30:06;;;;;;;;;;;;;;;16.24;80.22;100605.72;1238101;24;903;-79
2022/10/16 03:30:56;;;;;;;;;;;;;;;16.26;80.88;100598.34;1237828;24;658;-78
2022/10/16 03:31:48;;;;;;;;;;;;;;;16.24;79.31;100597.63;1237650;24;630;-78
2022/10/16 03:32:38;;;;;;;;;;;;;;;16.24;81.23;100600.31;1237352;24;756;-78
2022/10/16 03:33:29;;;;;;;;;;;;;;;16.25;80.49;100593.97;1237837;24;1287;-79
2022/10/16 03:34:19;;;;;;;;;;;;;;;16.29;80.99;100601.59;1237828;24;642;-80
2022/10/16 03:35:10;;;;;;;;;;;;;;;16.24;80.10;100601.19;1237775;24;662;-79
2022/10/16 03:36:00;;;;;;;;;;;;;;;16.22;80.10;100602.31;1237719;23;665;-79
2022/10/16 03:36:51;;;;;;;;;;;;;;;16.28;80.99;100605.28;1239063;23;630;-78
2022/10/16 03:37:41;;;;;;;;;;;;;;;16.20;79.80;100607.81;1237705;24;602;-78
2022/10/16 03:38:32;;;;;;;;;;;;;;;16.15;80.85;100607.38;1237877;24;642;-78
2022/10/16 03:39:22;;;;;;;;;;;;;;;16.22;80.92;100613.91;1238085;23;665;-78
2022/10/16 03:40:12;;;;;;;;;;;;;;;16.26;80.96;100618.03;1237349;24;662;-78
2022/10/16 03:41:03;;;;;;;;;;;;;;;16.28;81.17;100616.03;1243195;23;690;-78
2022/10/16 03:41:54;;;;;;;;;;;;;;;16.26;80.12;100612.66;1242908;23;744;-78
2022/10/16 03:42:44;;;;;;;;;;;;;;;16.29;80.57;100620.44;1236986;24;665;-78
2022/10/16 03:43:35;;;;;;;;;;;;;;;16.28;80.67;100621.44;1237866;24;690;-78
2022/10/16 03:44:26;;;;;;;;;;;;;;;16.16;80.90;100611.78;1237372;24;650;-78
2022/10/16 03:45:16;;;;;;;;;;;;;;;16.18;79.56;100625.09;1237803;24;638;-78
2022/10/16 03:46:06;;;;;;;;;;;;;;;16.24;81.08;100622.69;1238156;24;622;-79
2022/10/16 03:46:57;;;;;;;;;;;;;;;16.26;80.94;100618.03;1237814;24;630;-80
2022/10/16 03:47:47;;;;;;;;;;;;;;;16.26;81.22;100620.72;1237732;24;645;-78
2022/10/16 03:48:39;;;;;;;;;;;;;;;16.29;80.63;100623.13;1238313;24;681;-77
2022/10/16 03:49:30;;;;;;;;;;;;;;;16.20;80.41;100618.56;1237006;24;626;-80
2022/10/16 03:50:20;;;;;;;;;;;;;;;16.26;80.58;100614.47;1237107;24;602;-77
2022/10/16 03:51:11;;;;;;;;;;;;;;;16.25;80.20;100619.00;1237762;24;598;-77
2022/10/16 03:52:01;;;;;;;;;;;;;;;16.30;81.10;100614.03;1237760;24;627;-78
2022/10/16 03:52:51;;;;;;;;;;;;;;;16.33;80.84;100618.28;1237722;24;626;-78
2022/10/16 03:53:42;;;;;;;;;;;;;;;16.27;80.22;100614.34;1237874;24;666;-78
2022/10/16 03:54:32;;;;;;;;;;;;;;;16.30;80.63;100615.91;1237191;23;650;-78
2022/10/16 03:55:23;;;;;;;;;;;;;;;16.29;80.55;100623.13;1237677;24;943;-78
2022/10/16 03:56:13;;;;;;;;;;;;;;;16.29;80.00;100616.91;1237714;24;606;-79
2022/10/16 03:57:04;;;;;;;;;;;;;;;16.22;79.87;100615.75;1237919;23;669;-78
2022/10/16 03:57:54;;;;;;;;;;;;;;;16.25;80.97;100621.69;1243494;23;673;-79
2022/10/16 03:58:44;;;;;;;;;;;;;;;16.16;80.23;100613.63;1242322;23;611;-78
2022/10/16 03:59:35;;;;;;;;;;;;;;;16.23;80.71;100618.31;1238795;23;665;-79
2022/10/16 04:00:25;;;;;;;;;;;;;;;16.25;80.29;100621.69;1237349;24;614;-79
2022/10/16 04:01:16;;;;;;;;;;;;;;;16.27;80.67;100626.94;1237567;24;654;-78
2022/10/16 04:02:06;;;;;;;;;;;;;;;16.24;80.63;100625.38;1237706;24;682;-78
2022/10/16 04:02:59;;;;;;;;;;;;;;;16.26;80.40;100626.09;1237882;23;626;-78
2022/10/16 04:03:50;;;;;;;;;;;;;;;16.29;81.08;100627.66;1237727;24;768;-78
2022/10/16 04:04:40;;;;;;;;;;;;;;;16.29;79.92;100625.81;1237833;24;638;-78
2022/10/16 04:05:31;;;;;;;;;;;;;;;16.29;80.73;100622.28;1238090;24;681;-78
2022/10/16 04:06:21;;;;;;;;;;;;;;;16.26;79.43;100630.63;1237871;24;610;-78
2022/10/16 04:07:11;;;;;;;;;;;;;;;16.23;79.51;100633.59;1243349;23;638;-78
2022/10/16 04:08:05;;;;;;;;;;;;;;;16.19;78.99;100633.00;1242340;23;642;-77
2022/10/16 04:08:56;;;;;;;;;;;;;;;16.11;81.18;100623.97;1238527;23;944;-78
2022/10/16 04:09:46;;;;;;;;;;;;;;;16.14;80.86;100629.88;1237143;24;626;-77
2022/10/16 04:10:39;;;;;;;;;;;;;;;16.22;80.60;100623.81;1237864;24;666;-77
2022/10/16 04:11:30;;;;;;;;;;;;;;;16.15;80.26;100626.22;1237814;24;626;-78
2022/10/16 04:12:20;;;;;;;;;;;;;;;16.10;79.95;100619.56;1238045;23;614;-78
2022/10/16 04:13:10;;;;;;;;;;;;;;;16.17;80.64;100629.59;1238232;23;706;-77
2022/10/16 04:14:01;;;;;;;;;;;;;;;16.23;81.16;100628.22;1237712;24;622;-78
2022/10/16 04:14:54;;;;;;;;;;;;;;;16.20;80.11;100634.72;1237893;24;622;-77
2022/10/16 04:15:47;;;;;;;;;;;;;;;16.07;79.13;100636.84;1237994;24;650;-77
2022/10/16 04:16:38;;;;;;;;;;;;;;;16.07;79.88;100634.16;1237638;24;638;-77
2022/10/16 04:17:28;;;;;;;;;;;;;;;16.12;80.57;100642.63;1238280;23;693;-77
2022/10/16 04:18:18;;;;;;;;;;;;;;;16.11;80.88;100637.41;1237875;24;686;-78
2022/10/16 04:19:09;;;;;;;;;;;;;;;16.16;80.85;100627.91;1237818;23;623;-77
2022/10/16 04:19:59;;;;;;;;;;;;;;;16.14;79.49;100634.41;1238023;24;692;-78
2022/10/16 04:20:50;;;;;;;;;;;;;;;16.05;78.64;100640.66;1237695;24;689;-78
2022/10/16 04:21:40;;;;;;;;;;;;;;;15.87;77.98;100632.41;1237820;24;674;-78
2022/10/16 04:22:30;;;;;;;;;;;;;;;15.91;79.55;100644.59;1237833;23;1889;-77
2022/10/16 04:23:22;;;;;;;;;;;;;;;16.01;79.62;100647.28;1237898;23;599;-78
2022/10/16 04:24:13;;;;;;;;;;;;;;;16.00;79.18;100649.13;1237311;24;623;-78
2022/10/16 04:25:03;;;;;;;;;;;;;;;16.01;80.63;100645.44;1237621;24;623;-78
2022/10/16 04:25:54;;;;;;;;;;;;;;;16.08;80.97;100654.66;1237599;24;635;-78
2022/10/16 04:26:44;;;;;;;;;;;;;;;16.09;80.82;100645.59;1237189;24;698;-78